createdAt,value
2017-07-23T00:00:21.930Z,0
2017-07-23T00:00:48.141Z,0
2017-07-23T00:01:14.262Z,0
2017-07-23T00:01:40.465Z,0
2017-07-23T00:02:06.639Z,0
2017-07-23T00:02:32.859Z,0
2017-07-23T00:02:59.031Z,0
2017-07-23T00:03:25.175Z,0
2017-07-23T00:03:51.333Z,0
2017-07-23T00:04:17.543Z,0
2017-07-23T00:04:43.694Z,0
2017-07-23T00:05:09.817Z,0
2017-07-23T00:05:35.935Z,0
2017-07-23T00:06:02.048Z,0
2017-07-23T00:06:28.264Z,0
2017-07-23T00:06:54.406Z,0
2017-07-23T00:07:20.600Z,0
2017-07-23T00:07:46.744Z,0
2017-07-23T00:08:12.917Z,0
2017-07-23T00:08:39.133Z,0
2017-07-23T00:09:05.275Z,0
2017-07-23T00:09:31.412Z,0
2017-07-23T00:09:57.629Z,0
2017-07-23T00:10:23.753Z,0
2017-07-23T00:10:49.863Z,0
2017-07-23T00:11:16.038Z,0
2017-07-23T00:11:42.191Z,0
2017-07-23T00:12:08.302Z,0
2017-07-23T00:12:34.461Z,0
2017-07-23T00:13:00.623Z,0
2017-07-23T00:13:26.800Z,0
2017-07-23T00:13:53.022Z,0
2017-07-23T00:14:19.157Z,0
2017-07-23T00:14:45.359Z,0
2017-07-23T00:15:11.576Z,0
2017-07-23T00:15:37.745Z,0
2017-07-23T00:16:03.886Z,0
2017-07-23T00:16:30.077Z,0
2017-07-23T00:16:56.215Z,0
2017-07-23T00:17:22.357Z,0
2017-07-23T00:17:48.512Z,0
2017-07-23T00:18:14.691Z,0
2017-07-23T00:18:40.918Z,0
2017-07-23T00:19:07.086Z,0
2017-07-23T00:19:33.230Z,0
2017-07-23T00:19:59.389Z,0
2017-07-23T00:20:25.567Z,0
2017-07-23T00:20:51.733Z,0
2017-07-23T00:21:17.896Z,0
2017-07-23T00:21:44.011Z,0
2017-07-23T00:22:10.180Z,0
2017-07-23T00:22:36.331Z,0
2017-07-23T00:23:02.450Z,0
2017-07-23T00:23:28.594Z,0
2017-07-23T00:23:54.738Z,0
2017-07-23T00:24:20.873Z,0
2017-07-23T00:24:47.034Z,0
2017-07-23T00:25:13.240Z,0
2017-07-23T00:25:39.374Z,0
2017-07-23T00:26:05.628Z,0
2017-07-23T00:26:31.777Z,0
2017-07-23T00:26:57.884Z,0
2017-07-23T00:27:24.031Z,0
2017-07-23T00:27:50.219Z,0
2017-07-23T00:28:16.380Z,0
2017-07-23T00:28:42.582Z,0
2017-07-23T00:29:08.755Z,0
2017-07-23T00:29:34.965Z,0
2017-07-23T00:30:01.145Z,0
2017-07-23T00:30:27.284Z,0
2017-07-23T00:30:53.492Z,0
2017-07-23T00:31:19.683Z,0
2017-07-23T00:31:45.818Z,0
2017-07-23T00:32:11.968Z,0
2017-07-23T00:32:38.191Z,0
2017-07-23T00:33:04.335Z,0
2017-07-23T00:33:30.509Z,0
2017-07-23T00:33:56.703Z,0
2017-07-23T00:34:22.878Z,0
2017-07-23T00:34:49.042Z,0
2017-07-23T00:35:15.202Z,0
2017-07-23T00:35:41.392Z,0
2017-07-23T00:36:07.580Z,0
2017-07-23T00:36:33.769Z,0
2017-07-23T00:36:59.978Z,0
2017-07-23T00:37:26.149Z,0
2017-07-23T00:37:52.269Z,0
2017-07-23T00:38:18.484Z,0
2017-07-23T00:38:44.615Z,0
2017-07-23T00:39:10.762Z,0
2017-07-23T00:39:36.955Z,0
2017-07-23T00:40:03.150Z,0
2017-07-23T00:40:29.337Z,0
2017-07-23T00:40:55.529Z,0
2017-07-23T00:41:21.653Z,0
2017-07-23T00:41:47.777Z,0
2017-07-23T00:42:13.913Z,0
2017-07-23T00:42:40.029Z,0
2017-07-23T00:43:06.221Z,0
2017-07-23T00:43:32.361Z,0
2017-07-23T00:43:58.510Z,0
2017-07-23T00:44:24.666Z,0
2017-07-23T00:44:50.876Z,0
2017-07-23T00:45:17.012Z,0
2017-07-23T00:45:43.137Z,0
2017-07-23T00:46:09.316Z,0
2017-07-23T00:46:35.474Z,0
2017-07-23T00:47:01.585Z,0
2017-07-23T00:47:27.759Z,0
2017-07-23T00:47:53.915Z,0
2017-07-23T00:48:20.084Z,0
2017-07-23T00:48:46.278Z,0
2017-07-23T00:49:12.467Z,0
2017-07-23T00:49:38.675Z,0
2017-07-23T00:50:04.806Z,0
2017-07-23T00:50:30.993Z,0
2017-07-23T00:50:57.144Z,0
2017-07-23T00:51:23.295Z,0
2017-07-23T00:51:49.435Z,0
2017-07-23T00:52:15.581Z,0
2017-07-23T00:52:41.825Z,0
2017-07-23T00:53:08.037Z,0
2017-07-23T00:53:34.233Z,0
2017-07-23T00:54:00.449Z,0
2017-07-23T00:54:26.566Z,0
2017-07-23T00:54:52.730Z,0
2017-07-23T00:55:18.916Z,0
2017-07-23T00:55:45.076Z,0
2017-07-23T00:56:11.216Z,0
2017-07-23T00:56:37.333Z,0
2017-07-23T00:57:03.477Z,0
2017-07-23T00:57:29.666Z,0
2017-07-23T00:57:55.845Z,0
2017-07-23T00:58:21.957Z,0
2017-07-23T00:58:48.110Z,0
2017-07-23T00:59:14.299Z,0
2017-07-23T00:59:40.406Z,0
2017-07-23T01:00:06.583Z,0
2017-07-23T01:00:32.808Z,0
2017-07-23T01:00:59.030Z,0
2017-07-23T01:01:25.176Z,0
2017-07-23T01:01:51.368Z,0
2017-07-23T01:02:17.482Z,0
2017-07-23T01:02:43.664Z,0
2017-07-23T01:03:09.835Z,0
2017-07-23T01:03:35.981Z,0
2017-07-23T01:04:02.141Z,0
2017-07-23T01:04:28.338Z,0
2017-07-23T01:04:54.453Z,0
2017-07-23T01:05:20.608Z,0
2017-07-23T01:05:46.751Z,0
2017-07-23T01:06:12.887Z,0
2017-07-23T01:06:39.050Z,0
2017-07-23T01:07:05.225Z,0
2017-07-23T01:07:31.367Z,0
2017-07-23T01:07:57.491Z,0
2017-07-23T01:08:23.658Z,0
2017-07-23T01:08:49.843Z,0
2017-07-23T01:09:15.983Z,0
2017-07-23T01:09:42.123Z,0
2017-07-23T01:10:08.342Z,0
2017-07-23T01:10:34.520Z,0
2017-07-23T01:11:00.683Z,0
2017-07-23T01:11:26.837Z,0
2017-07-23T01:11:53.013Z,0
2017-07-23T01:12:19.210Z,0
2017-07-23T01:12:45.364Z,0
2017-07-23T01:13:11.611Z,0
2017-07-23T01:13:37.752Z,0
2017-07-23T01:14:03.965Z,0
2017-07-23T01:14:30.103Z,0
2017-07-23T01:14:56.255Z,0
2017-07-23T01:15:22.433Z,0
2017-07-23T01:15:48.599Z,0
2017-07-23T01:16:14.781Z,0
2017-07-23T01:16:40.937Z,0
2017-07-23T01:17:07.105Z,0
2017-07-23T01:17:33.223Z,0
2017-07-23T01:17:59.414Z,0
2017-07-23T01:18:25.580Z,0
2017-07-23T01:18:51.726Z,0
2017-07-23T01:19:17.974Z,0
2017-07-23T01:19:44.144Z,0
2017-07-23T01:20:10.312Z,0
2017-07-23T01:20:36.502Z,0
2017-07-23T01:21:02.684Z,0
2017-07-23T01:21:28.876Z,0
2017-07-23T01:21:55.062Z,0
2017-07-23T01:22:21.241Z,0
2017-07-23T01:22:47.353Z,0
2017-07-23T01:23:13.480Z,0
2017-07-23T01:23:39.604Z,0
2017-07-23T01:24:05.767Z,0
2017-07-23T01:24:31.885Z,0
2017-07-23T01:24:58.068Z,0
2017-07-23T01:25:24.189Z,0
2017-07-23T01:25:50.343Z,0
2017-07-23T01:26:16.565Z,0
2017-07-23T01:26:42.690Z,0
2017-07-23T01:27:08.906Z,0
2017-07-23T01:27:35.069Z,0
2017-07-23T01:28:01.240Z,0
2017-07-23T01:28:27.432Z,0
2017-07-23T01:28:53.661Z,0
2017-07-23T01:29:19.804Z,0
2017-07-23T01:29:45.987Z,0
2017-07-23T01:30:12.186Z,0
2017-07-23T01:30:38.365Z,0
2017-07-23T01:31:04.470Z,0
2017-07-23T01:31:30.616Z,0
2017-07-23T01:31:56.834Z,0
2017-07-23T01:32:22.978Z,0
2017-07-23T01:32:49.147Z,0
2017-07-23T01:33:15.305Z,0
2017-07-23T01:33:41.444Z,0
2017-07-23T01:34:07.611Z,0
2017-07-23T01:34:33.771Z,0
2017-07-23T01:34:59.980Z,0
2017-07-23T01:35:26.120Z,0
2017-07-23T01:35:52.338Z,0
2017-07-23T01:36:18.480Z,0
2017-07-23T01:36:44.636Z,0
2017-07-23T01:37:10.784Z,0
2017-07-23T01:37:36.949Z,0
2017-07-23T01:38:03.112Z,0
2017-07-23T01:38:29.259Z,0
2017-07-23T01:38:55.370Z,0
2017-07-23T01:39:21.560Z,0
2017-07-23T01:39:47.742Z,0
2017-07-23T01:40:13.850Z,0
2017-07-23T01:40:39.972Z,0
2017-07-23T01:41:06.133Z,0
2017-07-23T01:41:32.297Z,0
2017-07-23T01:41:58.446Z,0
2017-07-23T01:42:24.584Z,0
2017-07-23T01:42:50.711Z,0
2017-07-23T01:43:16.861Z,0
2017-07-23T01:43:42.973Z,0
2017-07-23T01:44:09.096Z,0
2017-07-23T01:44:35.310Z,0
2017-07-23T01:45:01.443Z,0
2017-07-23T01:45:27.622Z,0
2017-07-23T01:45:53.783Z,0
2017-07-23T01:46:19.918Z,0
2017-07-23T01:46:46.035Z,0
2017-07-23T01:47:12.180Z,0
2017-07-23T01:47:38.367Z,0
2017-07-23T01:48:04.554Z,0
2017-07-23T01:48:30.687Z,0
2017-07-23T01:48:56.889Z,0
2017-07-23T01:49:23.108Z,0
2017-07-23T01:49:49.252Z,0
2017-07-23T01:50:15.376Z,0
2017-07-23T01:50:41.560Z,0
2017-07-23T01:51:07.760Z,0
2017-07-23T01:51:33.900Z,0
2017-07-23T01:52:00.092Z,0
2017-07-23T01:52:26.271Z,0
2017-07-23T01:52:52.447Z,0
2017-07-23T01:53:18.643Z,0
2017-07-23T01:53:44.789Z,0
2017-07-23T01:54:10.948Z,0
2017-07-23T01:54:37.090Z,0
2017-07-23T01:55:03.201Z,0
2017-07-23T01:55:29.361Z,0
2017-07-23T01:55:55.576Z,0
2017-07-23T01:56:21.712Z,0
2017-07-23T01:56:47.891Z,0
2017-07-23T01:57:14.008Z,0
2017-07-23T01:57:40.120Z,0
2017-07-23T01:58:06.334Z,0
2017-07-23T01:58:32.501Z,0
2017-07-23T01:58:58.663Z,0
2017-07-23T01:59:24.839Z,0
2017-07-23T01:59:50.976Z,0
2017-07-23T02:00:17.184Z,0
2017-07-23T02:00:43.309Z,0
2017-07-23T02:01:09.504Z,0
2017-07-23T02:01:41.931Z,0
2017-07-23T02:02:08.072Z,0
2017-07-23T02:02:34.262Z,0
2017-07-23T02:03:00.535Z,0
2017-07-23T02:03:26.727Z,0
2017-07-23T02:03:52.880Z,0
2017-07-23T02:04:19.126Z,0
2017-07-23T02:04:45.263Z,0
2017-07-23T02:05:11.469Z,0
2017-07-23T02:05:37.661Z,0
2017-07-23T02:06:03.823Z,0
2017-07-23T02:06:29.998Z,0
2017-07-23T02:06:56.154Z,0
2017-07-23T02:07:22.293Z,0
2017-07-23T02:07:48.434Z,0
2017-07-23T02:08:14.562Z,0
2017-07-23T02:08:40.703Z,0
2017-07-23T02:09:06.845Z,0
2017-07-23T02:09:32.966Z,0
2017-07-23T02:09:59.172Z,0
2017-07-23T02:10:25.333Z,0
2017-07-23T02:10:51.471Z,0
2017-07-23T02:11:17.615Z,0
2017-07-23T02:11:43.776Z,0
2017-07-23T02:12:09.919Z,0
2017-07-23T02:12:36.056Z,0
2017-07-23T02:13:02.216Z,0
2017-07-23T02:13:28.422Z,0
2017-07-23T02:13:54.590Z,0
2017-07-23T02:14:20.773Z,0
2017-07-23T02:14:46.892Z,0
2017-07-23T02:15:13.040Z,0
2017-07-23T02:15:39.215Z,0
2017-07-23T02:16:05.350Z,0
2017-07-23T02:16:31.507Z,0
2017-07-23T02:16:57.717Z,0
2017-07-23T02:17:23.940Z,0
2017-07-23T02:17:50.127Z,0
2017-07-23T02:18:16.280Z,0
2017-07-23T02:18:42.475Z,0
2017-07-23T02:19:08.595Z,0
2017-07-23T02:19:34.783Z,0
2017-07-23T02:20:00.890Z,0
2017-07-23T02:20:27.033Z,0
2017-07-23T02:20:53.143Z,0
2017-07-23T02:21:19.303Z,0
2017-07-23T02:21:45.482Z,0
2017-07-23T02:22:11.621Z,0
2017-07-23T02:22:37.829Z,0
2017-07-23T02:23:03.985Z,0
2017-07-23T02:23:30.146Z,0
2017-07-23T02:23:56.293Z,0
2017-07-23T02:24:22.487Z,0
2017-07-23T02:24:48.621Z,0
2017-07-23T02:25:14.793Z,0
2017-07-23T02:25:40.921Z,0
2017-07-23T02:26:07.103Z,0
2017-07-23T02:26:33.298Z,0
2017-07-23T02:26:59.459Z,0
2017-07-23T02:27:25.638Z,0
2017-07-23T02:27:51.795Z,0
2017-07-23T02:28:17.964Z,0
2017-07-23T02:28:44.165Z,0
2017-07-23T02:29:10.292Z,0
2017-07-23T02:29:36.519Z,0
2017-07-23T02:30:02.661Z,0
2017-07-23T02:30:28.885Z,0
2017-07-23T02:30:55.061Z,0
2017-07-23T02:31:21.253Z,0
2017-07-23T02:31:47.442Z,0
2017-07-23T02:32:13.604Z,0
2017-07-23T02:32:39.791Z,0
2017-07-23T02:33:05.997Z,0
2017-07-23T02:33:32.187Z,0
2017-07-23T02:33:58.443Z,0
2017-07-23T02:34:24.618Z,0
2017-07-23T02:34:50.819Z,0
2017-07-23T02:35:17.027Z,0
2017-07-23T02:35:43.209Z,0
2017-07-23T02:36:09.374Z,0
2017-07-23T02:36:35.527Z,0
2017-07-23T02:37:01.681Z,0
2017-07-23T02:37:27.882Z,0
2017-07-23T02:37:54.027Z,0
2017-07-23T02:38:20.218Z,0
2017-07-23T02:38:46.461Z,0
2017-07-23T02:39:12.704Z,0
2017-07-23T02:40:34.823Z,0
2017-07-23T02:41:01.046Z,0
2017-07-23T02:41:27.219Z,0
2017-07-23T02:41:53.413Z,0
2017-07-23T02:42:19.574Z,0
2017-07-23T02:42:45.785Z,0
2017-07-23T02:43:12.012Z,0
2017-07-23T02:43:38.164Z,0
2017-07-23T02:44:04.331Z,0
2017-07-23T02:44:30.493Z,0
2017-07-23T02:44:56.639Z,0
2017-07-23T02:45:22.830Z,0
2017-07-23T02:45:49.059Z,0
2017-07-23T02:46:15.231Z,0
2017-07-23T02:46:41.341Z,0
2017-07-23T02:47:07.552Z,0
2017-07-23T02:47:33.799Z,0
2017-07-23T02:47:59.906Z,0
2017-07-23T02:48:26.060Z,0
2017-07-23T02:48:52.253Z,0
2017-07-23T02:49:18.414Z,0
2017-07-23T02:49:44.562Z,0
2017-07-23T02:50:10.780Z,0
2017-07-23T02:50:37.001Z,0
2017-07-23T02:51:03.147Z,0
2017-07-23T02:51:29.368Z,0
2017-07-23T02:51:55.544Z,0
2017-07-23T02:52:21.765Z,0
2017-07-23T02:52:47.960Z,0
2017-07-23T02:53:14.168Z,0
2017-07-23T02:53:40.280Z,0
2017-07-23T02:54:06.434Z,0
2017-07-23T02:54:32.618Z,0
2017-07-23T02:54:58.735Z,0
2017-07-23T02:55:24.944Z,0
2017-07-23T02:55:51.165Z,0
2017-07-23T02:56:17.355Z,0
2017-07-23T02:56:43.529Z,0
2017-07-23T02:57:09.666Z,0
2017-07-23T02:57:35.848Z,0
2017-07-23T02:58:02.031Z,0
2017-07-23T02:58:28.200Z,4
2017-07-23T02:58:54.378Z,4
2017-07-23T02:59:20.542Z,4
2017-07-23T02:59:46.677Z,4
2017-07-23T03:00:12.831Z,4
2017-07-23T03:00:39.015Z,4
2017-07-23T03:01:05.132Z,4
2017-07-23T03:01:31.326Z,4
2017-07-23T03:01:57.511Z,4
2017-07-23T03:02:23.685Z,0
2017-07-23T03:02:49.851Z,4
2017-07-23T03:03:15.982Z,4
2017-07-23T03:03:42.161Z,4
2017-07-23T03:04:08.302Z,4
2017-07-23T03:04:34.409Z,4
2017-07-23T03:05:00.534Z,4
2017-07-23T03:05:26.674Z,8
2017-07-23T03:05:52.832Z,8
2017-07-23T03:06:18.975Z,8
2017-07-23T03:06:45.141Z,4
2017-07-23T03:07:11.269Z,4
2017-07-23T03:07:37.457Z,8
2017-07-23T03:08:03.592Z,8
2017-07-23T03:08:29.776Z,4
2017-07-23T03:08:55.866Z,8
2017-07-23T03:09:21.996Z,8
2017-07-23T03:09:48.187Z,8
2017-07-23T03:10:14.325Z,8
2017-07-23T03:10:40.474Z,8
2017-07-23T03:11:06.580Z,8
2017-07-23T03:11:32.724Z,8
2017-07-23T03:11:58.847Z,8
2017-07-23T03:12:25.007Z,8
2017-07-23T03:12:51.101Z,8
2017-07-23T03:13:17.276Z,8
2017-07-23T03:13:43.402Z,8
2017-07-23T03:14:09.556Z,8
2017-07-23T03:14:35.672Z,12
2017-07-23T03:15:01.830Z,12
2017-07-23T03:15:27.985Z,12
2017-07-23T03:15:54.076Z,16
2017-07-23T03:16:20.182Z,12
2017-07-23T03:16:46.373Z,16
2017-07-23T03:17:12.517Z,16
2017-07-23T03:17:38.691Z,16
2017-07-23T03:18:04.808Z,16
2017-07-23T03:18:30.966Z,20
2017-07-23T03:18:57.121Z,16
2017-07-23T03:19:23.237Z,20
2017-07-23T03:19:49.391Z,24
2017-07-23T03:20:15.577Z,28
2017-07-23T03:20:41.717Z,28
2017-07-23T03:21:07.893Z,32
2017-07-23T03:21:33.999Z,28
2017-07-23T03:22:00.118Z,24
2017-07-23T03:22:26.264Z,28
2017-07-23T03:22:52.388Z,28
2017-07-23T03:23:18.543Z,28
2017-07-23T03:23:44.702Z,32
2017-07-23T03:24:10.835Z,36
2017-07-23T03:24:36.985Z,36
2017-07-23T03:25:03.148Z,40
2017-07-23T03:25:29.490Z,40
2017-07-23T03:25:55.661Z,44
2017-07-23T03:26:21.847Z,44
2017-07-23T03:26:47.996Z,40
2017-07-23T03:27:14.138Z,44
2017-07-23T03:27:40.306Z,48
2017-07-23T03:28:06.400Z,52
2017-07-23T03:28:32.579Z,52
2017-07-23T03:28:58.721Z,52
2017-07-23T03:29:24.845Z,56
2017-07-23T03:29:51.035Z,56
2017-07-23T03:30:17.157Z,64
2017-07-23T03:30:43.320Z,68
2017-07-23T03:31:09.507Z,76
2017-07-23T03:31:35.682Z,80
2017-07-23T03:32:01.780Z,88
2017-07-23T03:32:27.932Z,92
2017-07-23T03:32:54.088Z,84
2017-07-23T03:33:20.277Z,72
2017-07-23T03:33:46.404Z,68
2017-07-23T03:34:12.564Z,68
2017-07-23T03:34:38.727Z,68
2017-07-23T03:35:04.851Z,68
2017-07-23T03:35:31.039Z,68
2017-07-23T03:35:57.184Z,64
2017-07-23T03:36:23.355Z,64
2017-07-23T03:36:49.517Z,72
2017-07-23T03:37:15.638Z,76
2017-07-23T03:37:41.804Z,76
2017-07-23T03:38:07.964Z,76
2017-07-23T03:38:34.120Z,72
2017-07-23T03:39:00.257Z,68
2017-07-23T03:39:26.465Z,64
2017-07-23T03:39:52.560Z,72
2017-07-23T03:40:18.694Z,76
2017-07-23T03:40:44.840Z,84
2017-07-23T03:41:10.955Z,84
2017-07-23T03:41:37.090Z,92
2017-07-23T03:42:03.298Z,112
2017-07-23T03:42:29.415Z,132
2017-07-23T03:42:55.521Z,152
2017-07-23T03:43:21.679Z,172
2017-07-23T03:43:47.817Z,180
2017-07-23T03:44:13.971Z,184
2017-07-23T03:44:40.105Z,188
2017-07-23T03:45:06.249Z,200
2017-07-23T03:45:32.347Z,224
2017-07-23T03:45:58.461Z,248
2017-07-23T03:46:24.617Z,276
2017-07-23T03:46:50.744Z,292
2017-07-23T03:47:16.909Z,312
2017-07-23T03:47:43.059Z,320
2017-07-23T03:48:09.191Z,332
2017-07-23T03:48:35.304Z,348
2017-07-23T03:49:01.428Z,360
2017-07-23T03:49:27.561Z,364
2017-07-23T03:49:53.707Z,364
2017-07-23T03:50:19.874Z,360
2017-07-23T03:50:45.979Z,352
2017-07-23T03:51:12.132Z,348
2017-07-23T03:51:38.318Z,336
2017-07-23T03:52:04.410Z,324
2017-07-23T03:52:30.533Z,320
2017-07-23T03:52:56.639Z,308
2017-07-23T03:53:22.728Z,288
2017-07-23T03:53:48.874Z,284
2017-07-23T03:54:15.035Z,280
2017-07-23T03:54:41.156Z,272
2017-07-23T03:55:07.273Z,272
2017-07-23T03:55:33.460Z,292
2017-07-23T03:55:59.558Z,296
2017-07-23T03:56:25.741Z,296
2017-07-23T03:56:51.889Z,320
2017-07-23T03:57:18.035Z,340
2017-07-23T03:57:44.196Z,348
2017-07-23T03:58:10.317Z,356
2017-07-23T03:58:36.455Z,364
2017-07-23T03:59:02.587Z,376
2017-07-23T03:59:28.713Z,376
2017-07-23T03:59:54.851Z,368
2017-07-23T04:00:21.006Z,380
2017-07-23T04:00:47.105Z,392
2017-07-23T04:01:13.247Z,404
2017-07-23T04:01:39.428Z,412
2017-07-23T04:02:05.517Z,404
2017-07-23T04:02:31.683Z,376
2017-07-23T04:02:57.809Z,344
2017-07-23T04:03:23.948Z,308
2017-07-23T04:03:50.130Z,272
2017-07-23T04:04:16.257Z,256
2017-07-23T04:04:42.345Z,252
2017-07-23T04:05:08.447Z,272
2017-07-23T04:05:34.580Z,304
2017-07-23T04:06:00.741Z,344
2017-07-23T04:06:26.913Z,392
2017-07-23T04:06:53.076Z,456
2017-07-23T04:07:19.191Z,512
2017-07-23T04:07:45.323Z,564
2017-07-23T04:08:11.439Z,612
2017-07-23T04:08:37.592Z,660
2017-07-23T04:09:03.783Z,724
2017-07-23T04:09:29.873Z,748
2017-07-23T04:09:55.974Z,764
2017-07-23T04:10:22.161Z,784
2017-07-23T04:10:48.276Z,804
2017-07-23T04:11:14.421Z,896
2017-07-23T04:11:40.635Z,968
2017-07-23T04:12:06.781Z,1028
2017-07-23T04:12:32.993Z,1088
2017-07-23T04:12:59.177Z,1140
2017-07-23T04:13:25.274Z,1192
2017-07-23T04:13:51.381Z,1196
2017-07-23T04:14:17.523Z,1224
2017-07-23T04:14:43.644Z,1260
2017-07-23T04:15:09.841Z,1256
2017-07-23T04:15:35.962Z,1328
2017-07-23T04:16:02.080Z,1304
2017-07-23T04:16:28.218Z,1312
2017-07-23T04:16:54.338Z,1328
2017-07-23T04:17:20.430Z,1332
2017-07-23T04:17:46.610Z,1328
2017-07-23T04:18:12.765Z,1328
2017-07-23T04:18:38.952Z,1340
2017-07-23T04:19:05.057Z,1360
2017-07-23T04:19:31.276Z,1388
2017-07-23T04:19:57.435Z,1412
2017-07-23T04:20:23.580Z,1424
2017-07-23T04:20:49.731Z,1424
2017-07-23T04:21:15.880Z,1416
2017-07-23T04:21:41.977Z,1392
2017-07-23T04:22:08.138Z,1364
2017-07-23T04:22:34.260Z,1320
2017-07-23T04:23:00.400Z,1280
2017-07-23T04:23:26.560Z,1240
2017-07-23T04:23:52.714Z,1180
2017-07-23T04:24:18.840Z,1112
2017-07-23T04:24:45.009Z,1028
2017-07-23T04:25:11.177Z,980
2017-07-23T04:25:37.369Z,932
2017-07-23T04:26:03.541Z,892
2017-07-23T04:26:29.654Z,840
2017-07-23T04:26:55.792Z,800
2017-07-23T04:27:21.942Z,756
2017-07-23T04:27:48.053Z,724
2017-07-23T04:28:14.213Z,700
2017-07-23T04:28:40.313Z,676
2017-07-23T04:29:06.430Z,664
2017-07-23T04:29:32.590Z,656
2017-07-23T04:29:58.728Z,656
2017-07-23T04:30:24.911Z,660
2017-07-23T04:30:51.089Z,672
2017-07-23T04:31:17.204Z,688
2017-07-23T04:31:43.386Z,700
2017-07-23T04:32:09.484Z,712
2017-07-23T04:32:35.601Z,720
2017-07-23T04:33:01.757Z,732
2017-07-23T04:33:27.919Z,744
2017-07-23T04:33:54.028Z,748
2017-07-23T04:34:20.155Z,744
2017-07-23T04:34:46.318Z,740
2017-07-23T04:35:12.486Z,728
2017-07-23T04:35:38.587Z,720
2017-07-23T04:36:04.703Z,704
2017-07-23T04:36:30.857Z,688
2017-07-23T04:36:57.017Z,664
2017-07-23T04:37:23.133Z,632
2017-07-23T04:37:49.256Z,644
2017-07-23T04:38:15.363Z,652
2017-07-23T04:38:41.505Z,660
2017-07-23T04:39:07.650Z,664
2017-07-23T04:39:33.812Z,668
2017-07-23T04:39:59.932Z,668
2017-07-23T04:40:26.094Z,672
2017-07-23T04:40:52.197Z,672
2017-07-23T04:41:18.297Z,668
2017-07-23T04:41:44.456Z,664
2017-07-23T04:42:10.627Z,652
2017-07-23T04:42:36.772Z,632
2017-07-23T04:43:02.988Z,616
2017-07-23T04:43:29.108Z,596
2017-07-23T04:43:55.200Z,576
2017-07-23T04:44:21.388Z,548
2017-07-23T04:44:47.486Z,516
2017-07-23T04:45:13.626Z,496
2017-07-23T04:45:39.782Z,472
2017-07-23T04:46:05.881Z,448
2017-07-23T04:46:32.006Z,432
2017-07-23T04:46:58.151Z,416
2017-07-23T04:47:24.290Z,408
2017-07-23T04:47:50.426Z,404
2017-07-23T04:48:16.580Z,408
2017-07-23T04:48:42.696Z,420
2017-07-23T04:49:08.852Z,432
2017-07-23T04:49:35.031Z,464
2017-07-23T04:50:01.172Z,496
2017-07-23T04:50:27.350Z,544
2017-07-23T04:50:53.481Z,600
2017-07-23T04:51:19.592Z,664
2017-07-23T04:51:45.769Z,736
2017-07-23T04:52:11.912Z,812
2017-07-23T04:52:38.042Z,888
2017-07-23T04:53:04.144Z,972
2017-07-23T04:53:30.331Z,1060
2017-07-23T04:53:56.487Z,1144
2017-07-23T04:54:22.648Z,1236
2017-07-23T04:54:48.758Z,1316
2017-07-23T04:55:14.907Z,1408
2017-07-23T04:55:41.040Z,1484
2017-07-23T04:56:07.156Z,1552
2017-07-23T04:56:33.278Z,1600
2017-07-23T04:56:59.412Z,1624
2017-07-23T04:57:25.556Z,1660
2017-07-23T04:57:51.688Z,1696
2017-07-23T04:58:17.850Z,1724
2017-07-23T04:58:43.972Z,1740
2017-07-23T04:59:10.136Z,1744
2017-07-23T04:59:36.279Z,1748
2017-07-23T05:00:02.425Z,1760
2017-07-23T05:00:28.584Z,1772
2017-07-23T05:00:54.733Z,1788
2017-07-23T05:01:20.921Z,1800
2017-07-23T05:01:47.094Z,1800
2017-07-23T05:02:13.236Z,1768
2017-07-23T05:02:39.349Z,1688
2017-07-23T05:03:05.507Z,1680
2017-07-23T05:03:31.632Z,1740
2017-07-23T05:03:57.748Z,1740
2017-07-23T05:04:23.906Z,1640
2017-07-23T05:04:50.040Z,1456
2017-07-23T05:05:16.204Z,1392
2017-07-23T05:05:42.353Z,1456
2017-07-23T05:06:08.512Z,1480
2017-07-23T05:06:34.603Z,1572
2017-07-23T05:07:00.747Z,1572
2017-07-23T05:07:26.889Z,1684
2017-07-23T05:07:53.010Z,1772
2017-07-23T05:08:19.174Z,1940
2017-07-23T05:08:45.278Z,1824
2017-07-23T05:09:11.406Z,1748
2017-07-23T05:09:37.510Z,1936
2017-07-23T05:10:03.628Z,2072
2017-07-23T05:10:29.775Z,2084
2017-07-23T05:10:55.881Z,2012
2017-07-23T05:11:22.031Z,1948
2017-07-23T05:11:48.145Z,2144
2017-07-23T05:12:14.309Z,2364
2017-07-23T05:12:40.434Z,2372
2017-07-23T05:13:06.573Z,2324
2017-07-23T05:13:32.734Z,2264
2017-07-23T05:13:58.862Z,2200
2017-07-23T05:14:24.987Z,2252
2017-07-23T05:14:51.136Z,2284
2017-07-23T05:15:17.267Z,2340
2017-07-23T05:15:43.387Z,2420
2017-07-23T05:16:09.535Z,2496
2017-07-23T05:16:35.623Z,2596
2017-07-23T05:17:01.758Z,2676
2017-07-23T05:17:27.937Z,2684
2017-07-23T05:17:54.076Z,2776
2017-07-23T05:18:20.230Z,2816
2017-07-23T05:18:46.367Z,2996
2017-07-23T05:19:12.503Z,3244
2017-07-23T05:19:38.655Z,3304
2017-07-23T05:20:04.802Z,3428
2017-07-23T05:20:30.955Z,3524
2017-07-23T05:20:57.109Z,3724
2017-07-23T05:21:23.274Z,4060
2017-07-23T05:21:49.401Z,4260
2017-07-23T05:22:15.535Z,4412
2017-07-23T05:22:41.644Z,4628
2017-07-23T05:23:07.745Z,4768
2017-07-23T05:23:33.879Z,4868
2017-07-23T05:24:00.020Z,5012
2017-07-23T05:24:26.117Z,5156
2017-07-23T05:24:52.278Z,5228
2017-07-23T05:25:18.406Z,5236
2017-07-23T05:25:44.557Z,5188
2017-07-23T05:26:10.718Z,5156
2017-07-23T05:26:36.843Z,5144
2017-07-23T05:27:02.976Z,5320
2017-07-23T05:27:29.096Z,5196
2017-07-23T05:27:55.213Z,5440
2017-07-23T05:28:21.371Z,5712
2017-07-23T05:28:47.521Z,5960
2017-07-23T05:29:13.686Z,6268
2017-07-23T05:29:39.824Z,6480
2017-07-23T05:30:05.976Z,7032
2017-07-23T05:30:32.141Z,7492
2017-07-23T05:30:58.297Z,7868
2017-07-23T05:31:24.467Z,8212
2017-07-23T05:31:50.628Z,8640
2017-07-23T05:32:16.752Z,9168
2017-07-23T05:32:42.840Z,9648
2017-07-23T05:33:09.001Z,10000
2017-07-23T05:33:35.095Z,10300
2017-07-23T05:34:01.212Z,10552
2017-07-23T05:34:27.421Z,10960
2017-07-23T05:34:53.600Z,11108
2017-07-23T05:35:19.739Z,11144
2017-07-23T05:35:45.888Z,11012
2017-07-23T05:36:12.078Z,10792
2017-07-23T05:36:38.225Z,10600
2017-07-23T05:37:04.404Z,10508
2017-07-23T05:37:30.592Z,10488
2017-07-23T05:37:56.751Z,10440
2017-07-23T05:38:22.877Z,10424
2017-07-23T05:38:48.992Z,10352
2017-07-23T05:39:15.144Z,10176
2017-07-23T05:39:41.250Z,10308
2017-07-23T05:40:07.340Z,10752
2017-07-23T05:40:33.467Z,11512
2017-07-23T05:40:59.630Z,11176
2017-07-23T05:41:25.746Z,12276
2017-07-23T05:41:51.844Z,12368
2017-07-23T05:42:17.969Z,12284
2017-07-23T05:42:44.102Z,12152
2017-07-23T05:43:10.262Z,12444
2017-07-23T05:43:36.401Z,12476
2017-07-23T05:44:02.498Z,12432
2017-07-23T05:44:28.633Z,12356
2017-07-23T05:44:54.804Z,11936
2017-07-23T05:45:20.928Z,12000
2017-07-23T05:45:47.064Z,11880
2017-07-23T05:46:13.238Z,11012
2017-07-23T05:46:39.354Z,11336
2017-07-23T05:47:05.463Z,11948
2017-07-23T05:47:31.616Z,11760
2017-07-23T05:47:57.732Z,11704
2017-07-23T05:48:23.918Z,11528
2017-07-23T05:48:50.046Z,11448
2017-07-23T05:49:16.161Z,10952
2017-07-23T05:49:42.289Z,10616
2017-07-23T05:50:08.477Z,10464
2017-07-23T05:50:34.667Z,10028
2017-07-23T05:51:00.837Z,9644
2017-07-23T05:51:27.027Z,9468
2017-07-23T05:51:53.141Z,9336
2017-07-23T05:52:19.314Z,9436
2017-07-23T05:52:45.476Z,9204
2017-07-23T05:53:11.649Z,9112
2017-07-23T05:53:37.831Z,9024
2017-07-23T05:54:03.998Z,8940
2017-07-23T05:54:30.096Z,8828
2017-07-23T05:54:56.230Z,8664
2017-07-23T05:55:22.351Z,8620
2017-07-23T05:55:48.497Z,8552
2017-07-23T05:56:14.634Z,8308
2017-07-23T05:56:40.753Z,8216
2017-07-23T05:57:06.919Z,8456
2017-07-23T05:57:33.058Z,7944
2017-07-23T05:57:59.239Z,7656
2017-07-23T05:58:25.356Z,7816
2017-07-23T05:58:51.520Z,8240
2017-07-23T05:59:17.615Z,8820
2017-07-23T05:59:43.745Z,8928
2017-07-23T06:00:09.945Z,8844
2017-07-23T06:00:36.063Z,8796
2017-07-23T06:01:02.228Z,8900
2017-07-23T06:01:28.378Z,8836
2017-07-23T06:01:54.468Z,8408
2017-07-23T06:02:20.623Z,8420
2017-07-23T06:02:46.749Z,8460
2017-07-23T06:03:12.885Z,9268
2017-07-23T06:03:39.035Z,9152
2017-07-23T06:04:05.195Z,9260
2017-07-23T06:04:31.364Z,9216
2017-07-23T06:04:57.516Z,9180
2017-07-23T06:05:23.657Z,9204
2017-07-23T06:05:49.846Z,9204
2017-07-23T06:06:15.974Z,9252
2017-07-23T06:06:42.140Z,9028
2017-07-23T06:07:08.270Z,9364
2017-07-23T06:07:34.404Z,9240
2017-07-23T06:08:00.572Z,9164
2017-07-23T06:08:26.721Z,9040
2017-07-23T06:08:52.855Z,9280
2017-07-23T06:09:19.020Z,9324
2017-07-23T06:09:45.144Z,9508
2017-07-23T06:10:11.270Z,9420
2017-07-23T06:10:37.445Z,9100
2017-07-23T06:11:03.642Z,9112
2017-07-23T06:11:29.776Z,9448
2017-07-23T06:11:55.925Z,9692